Date,TemperatureHighF,TemperatureAvgF,TemperatureLowF,DewpointHighF,DewpointAvgF,DewpointLowF,HumidityHigh,HumidityAvg,HumidityLow,PressureMaxIn,PressureMinIn,WindSpeedMaxMPH,WindSpeedAvgMPH,GustSpeedMaxMPH,PrecipitationSumIn
2013-2-1,26.6,24.9,22.8,3.3,-0.6,-5.9,37,32,24,29.50,29.38,7,3,11,0.00
2013-2-2,19.9,14.7,12.0,-2.2,-11.9,-15.5,44,29,24,29.94,29.91,3,0,4,0.00
2013-2-3,24.6,19.7,17.2,5.1,2.8,0.3,55,47,34,29.71,29.68,0,0,5,0.00
2013-2-4,23.7,22.5,21.4,3.8,0.3,-1.9,43,37,32,29.53,29.47,5,1,9,0.00
2013-2-5,24.6,21.3,20.1,1.3,-0.7,-3.0,41,37,32,29.74,29.65,0,0,4,0.00
2013-2-6,27.5,26.0,25.5,16.2,14.6,13.9,63,62,60,29.71,29.62,0,0,6,0.00
2013-2-7,19.4,14.8,13.1,-1.2,-5.4,-7.5,47,40,34,30.24,30.09,0,0,0,0.00
2013-2-8,27.1,25.9,25.3,7.6,-0.5,-14.0,43,32,16,30.09,29.97,0,0,4,0.00
2013-2-9,22.1,20.8,19.4,17.5,13.6,3.4,82,74,49,29.59,29.47,5,2,11,0.00
2013-2-10,13.1,1.5,-2.0,0.0,0.0,0.0,0,0,100,30.18,30.03,0,0,3,0.00
2013-2-11,23.7,20.4,18.0,10.7,4.0,1.1,57,49,45,29.97,29.83,0,0,4,0.00
2013-2-12,39.6,38.4,37.4,15.8,14.3,12.1,40,37,32,29.41,29.38,9,2,12,0.00
2013-2-13,35.6,34.2,33.1,12.1,10.3,9.4,41,37,33,29.59,29.59,5,1,9,0.00
2013-2-14,28.0,24.0,21.4,15.2,9.3,7.6,58,53,48,29.59,29.50,0,0,3,0.00
2013-2-15,34.9,27.0,23.4,26.5,16.2,10.9,71,63,57,29.71,29.68,5,1,7,0.00
2013-2-16,34.3,32.9,31.6,25.6,21.8,13.9,70,64,43,29.68,29.65,4,0,5,0.00
2013-2-17,23.9,21.8,20.3,-14.6,-16.3,-17.4,18,17,17,29.41,29.29,7,2,10,0.00
2013-2-18,15.3,12.3,11.1,0.0,-1.7,-20.2,19,2,19,29.80,29.59,8,3,12,0.00
2013-2-19,25.7,18.8,15.6,0.8,-2.9,-5.5,43,38,32,29.85,29.80,0,0,0,0.00
2013-2-20,33.6,30.4,28.4,12.4,6.7,4.4,41,36,32,29.41,29.32,4,0,9,0.00
2013-2-21,25.2,23.6,22.3,-0.5,-3.1,-6.0,32,30,27,29.59,29.53,10,4,16,0.00
2013-2-22,21.4,17.6,16.0,9.3,3.5,1.4,59,53,46,30.12,30.00,0,0,6,0.00
2013-2-23,35.2,33.2,32.2,17.2,14.6,12.7,49,46,42,29.97,29.91,0,0,0,0.00
2013-2-24,36.3,35.3,34.9,31.8,30.8,30.2,84,83,83,29.53,29.50,0,0,4,0.00
2013-2-25,35.1,30.5,28.2,29.3,24.7,22.6,81,79,77,29.80,29.68,0,0,0,0.00
2013-2-26,36.3,33.4,32.7,29.2,26.6,25.9,76,76,75,30.03,29.97,0,0,0,0.00
2013-2-27,36.7,34.7,33.3,33.2,30.2,26.2,87,83,74,29.80,29.59,0,0,4,0.00
2013-2-28,35.8,33.9,33.3,31.7,29.5,28.7,85,84,83,29.35,29.32,0,0,0,0.00